KHRO/HRO METAR and TAF weather

Enter ICAO airport designator
Station Type Date Time Source
KHRO METAR 2022/06/28 08:53 UTC NOAA

KHRO 280853Z AUTO 00000KT 10SM CLR 14/12 A3026 RMK AO2 SLP236 T01440117 53005


Station Type Date Time Source
KHRO Decoded METAR 2022/06/28 08:53 UTC NOAA

HARRISON BOONE COUNTY AIRPORT , AR, United States (KHRO) 36-16N 093-09W 417M
Jun 28, 2022 - 04:53 AM EDT / 2022.06.28 0853 UTC
Wind: Calm:0
Visibility: 10 mile(s):0
Sky conditions: clear
Temperature: 57.9 F (14.4 C)
Dew Point: 53.1 F (11.7 C)
Relative Humidity: 83%
Pressure (altimeter): 30.26 in. Hg (1024 hPa)
Pressure tendency: 0.01 inches (0.5 hPa) higher than three hours ago
ob: KHRO 280853Z AUTO 00000KT 10SM CLR 14/12 A3026 RMK AO2 SLP236 T01440117 53005
cycle: 9

Station Type Date Time Source
KHRO TAF 2022/06/28 06:45 UTC NOAA

TAF KHRO 280540Z 2806/2906 VRB04KT P6SM SCT120
FM281000 09006KT P6SM BKN120
FM282000 VRB05KT P6SM SCT250

Example: see airport list